createdAt,value
2022-08-17T00:01:31.396Z,98472.97
2022-08-17T00:04:19.512Z,98460.97
2022-08-17T00:06:46.334Z,98458.66
2022-08-17T00:09:18.766Z,98465.22
2022-08-17T00:12:34.763Z,98465.63
2022-08-17T00:14:35.209Z,98477.88
2022-08-17T00:17:03.934Z,98478.28
2022-08-17T00:19:32.578Z,98479.66
2022-08-17T00:22:34.559Z,98472.81
2022-08-17T00:24:47.207Z,98483.09
2022-08-17T00:27:13.681Z,98484.44
2022-08-17T00:29:40.174Z,98476.97
2022-08-17T00:33:14.414Z,98474.19
2022-08-17T00:34:53.191Z,98479.72
2022-08-17T00:37:19.660Z,98480.13
2022-08-17T00:39:46.191Z,98475.94
2022-08-17T00:42:14.081Z,98479.63
2022-08-17T00:44:40.520Z,98476.31
2022-08-17T00:47:07.084Z,98475.00
2022-08-17T00:49:33.546Z,98470.03
2022-08-17T00:52:05.284Z,98467.06
2022-08-17T00:54:42.061Z,98465.41
2022-08-17T00:57:11.178Z,98463.06
2022-08-17T00:59:44.104Z,98460.94
2022-08-17T01:02:12.614Z,98468.50
2022-08-17T01:04:39.253Z,98463.13
2022-08-17T01:07:06.636Z,98454.81
2022-08-17T01:09:33.495Z,98457.88
2022-08-17T01:12:00.181Z,98464.25
2022-08-17T01:14:27.089Z,98462.94
2022-08-17T01:16:55.113Z,98468.47
2022-08-17T01:19:23.764Z,98457.25
2022-08-17T01:21:52.635Z,98451.44
2022-08-17T01:24:19.096Z,98454.47
2022-08-17T01:26:46.071Z,98461.03
2022-08-17T01:29:13.221Z,98463.03
2022-08-17T01:31:42.481Z,98473.91
2022-08-17T01:34:10.692Z,98474.47
2022-08-17T01:36:38.968Z,98474.84
2022-08-17T01:39:06.850Z,98471.03
2022-08-17T01:41:34.023Z,98476.56
2022-08-17T01:44:02.535Z,98469.72
2022-08-17T01:46:31.015Z,98468.88
2022-08-17T01:48:58.100Z,98473.75
2022-08-17T01:51:26.028Z,98466.91
2022-08-17T01:53:54.350Z,98468.94
2022-08-17T01:56:22.911Z,98465.59
2022-08-17T01:58:49.476Z,98464.94
2022-08-17T02:01:17.195Z,98471.50
2022-08-17T02:03:53.479Z,98464.81
2022-08-17T02:06:27.449Z,98472.56
2022-08-17T02:09:01.712Z,98468.38
2022-08-17T02:11:29.788Z,98470.59
2022-08-17T02:14:02.702Z,98466.25
2022-08-17T02:16:37.726Z,98470.13
2022-08-17T02:19:10.003Z,98478.47
2022-08-17T02:21:37.444Z,98477.66
2022-08-17T02:24:05.182Z,98468.47
2022-08-17T02:26:31.706Z,98473.00
2022-08-17T02:28:58.186Z,98463.50
2022-08-17T02:31:24.717Z,98467.19
2022-08-17T02:34:00.492Z,98466.50
2022-08-17T02:36:31.932Z,98466.88
2022-08-17T02:38:59.597Z,98471.56
2022-08-17T02:41:26.023Z,98471.88
2022-08-17T02:43:53.619Z,98466.75
2022-08-17T02:46:20.101Z,98471.41
2022-08-17T02:48:46.618Z,98471.94
2022-08-17T02:51:13.066Z,98468.63
2022-08-17T02:53:39.510Z,98466.94
2022-08-17T02:56:06.234Z,98475.31
2022-08-17T02:58:35.156Z,98475.63
2022-08-17T03:01:03.421Z,98485.84
2022-08-17T03:03:30.066Z,98477.16
2022-08-17T03:05:56.456Z,98469.31
2022-08-17T03:08:23.454Z,98481.00
2022-08-17T03:10:50.549Z,98476.00
2022-08-17T03:13:17.502Z,98475.34
2022-08-17T03:15:45.324Z,98472.81
2022-08-17T03:18:18.906Z,98469.69
2022-08-17T03:20:51.162Z,98463.88
2022-08-17T03:23:17.674Z,98469.69
2022-08-17T03:25:45.989Z,98465.03
2022-08-17T03:28:12.655Z,98474.06
2022-08-17T03:30:39.982Z,98475.72
2022-08-17T03:33:07.619Z,98475.25
2022-08-17T03:35:36.401Z,98472.75
2022-08-17T03:38:03.970Z,98467.41
2022-08-17T03:40:41.822Z,98472.75
2022-08-17T03:43:17.985Z,98474.09
2022-08-17T03:46:03.224Z,98475.09
2022-08-17T03:48:48.508Z,98470.94
2022-08-17T03:51:38.367Z,98474.59
2022-08-17T03:54:23.724Z,98474.44
2022-08-17T03:56:56.199Z,98467.47
2022-08-17T03:59:22.848Z,98476.47
2022-08-17T04:01:55.003Z,98468.78
2022-08-17T04:04:21.549Z,98478.63
2022-08-17T04:06:54.254Z,98471.97
2022-08-17T04:09:20.777Z,98472.81
2022-08-17T04:11:47.202Z,98473.13
2022-08-17T04:14:13.663Z,98470.47
2022-08-17T04:16:40.254Z,98481.50
2022-08-17T04:19:06.740Z,98482.81
2022-08-17T04:21:34.397Z,98481.50
2022-08-17T04:24:01.221Z,98472.50
2022-08-17T04:26:53.946Z,98477.81
2022-08-17T04:29:14.898Z,98484.84
2022-08-17T04:31:41.458Z,98491.19
2022-08-17T04:34:07.952Z,98497.53
2022-08-17T04:36:34.467Z,98507.38
2022-08-17T04:39:01.006Z,98516.22
2022-08-17T04:41:46.089Z,98510.88
2022-08-17T04:44:12.572Z,98511.53
2022-08-17T04:46:53.696Z,98513.53
2022-08-17T04:49:20.814Z,98515.22
2022-08-17T04:51:55.826Z,98511.53
2022-08-17T04:54:23.868Z,98516.22
2022-08-17T04:56:50.374Z,98523.06
2022-08-17T04:59:20.514Z,98518.38
2022-08-17T05:01:48.300Z,98521.56
2022-08-17T05:04:33.073Z,98521.19
2022-08-17T05:07:01.831Z,98525.19
2022-08-17T05:09:29.068Z,98529.22
2022-08-17T05:11:56.361Z,98528.53
2022-08-17T05:14:32.447Z,98531.53
2022-08-17T05:17:00.416Z,98532.00
2022-08-17T05:19:27.709Z,98528.84
2022-08-17T05:21:54.215Z,98523.81
2022-08-17T05:24:39.113Z,98526.81
2022-08-17T05:27:07.490Z,98524.28
2022-08-17T05:29:35.180Z,98528.09
2022-08-17T05:32:38.983Z,98528.78
2022-08-17T05:35:01.710Z,98521.22
2022-08-17T05:37:28.147Z,98524.75
2022-08-17T05:39:54.747Z,98521.72
2022-08-17T05:42:21.489Z,98527.41
2022-08-17T05:44:47.944Z,98514.34
2022-08-17T05:47:14.424Z,98513.47
2022-08-17T05:49:40.874Z,98513.78
2022-08-17T05:52:27.602Z,98512.06
2022-08-17T05:54:54.018Z,98522.53
2022-08-17T05:57:24.906Z,98524.50
2022-08-17T06:00:12.082Z,98522.13
2022-08-17T06:02:59.068Z,98519.59
2022-08-17T06:05:44.202Z,98518.03
2022-08-17T06:08:23.380Z,98513.94
2022-08-17T06:10:57.489Z,98519.75
2022-08-17T06:13:50.705Z,98511.84
2022-08-17T06:16:28.144Z,98512.28
2022-08-17T06:19:04.336Z,98503.97
2022-08-17T06:21:33.805Z,98518.59
2022-08-17T06:24:06.220Z,98513.63
2022-08-17T06:26:39.717Z,98517.34
2022-08-17T06:29:37.130Z,98510.78
2022-08-17T06:32:05.426Z,98523.66
2022-08-17T06:34:32.968Z,98519.44
2022-08-17T06:37:09.141Z,98513.75
2022-08-17T06:39:36.020Z,98514.78
2022-08-17T06:42:54.619Z,98508.97
2022-08-17T06:45:08.416Z,98510.28
2022-08-17T06:47:34.826Z,98498.88
2022-08-17T06:50:14.576Z,98503.50
2022-08-17T06:52:49.966Z,98504.28
2022-08-17T06:55:20.329Z,98502.34
2022-08-17T06:57:50.129Z,98504.25
2022-08-17T07:00:18.441Z,98500.31
2022-08-17T07:03:04.477Z,98502.31
2022-08-17T07:05:37.083Z,98492.03
2022-08-17T07:08:11.809Z,98484.84
2022-08-17T07:10:43.085Z,98488.91
2022-08-17T07:13:29.760Z,98488.94
2022-08-17T07:16:04.957Z,98494.97
2022-08-17T07:18:33.255Z,98496.47
2022-08-17T07:21:05.226Z,98495.72
2022-08-17T07:23:38.256Z,98491.94
2022-08-17T07:26:05.593Z,98489.16
2022-08-17T07:28:33.031Z,98491.94
2022-08-17T07:31:00.021Z,98491.28
2022-08-17T07:33:31.353Z,98485.44
2022-08-17T07:35:58.176Z,98482.09
2022-08-17T07:38:28.806Z,98483.41
2022-08-17T07:41:00.204Z,98479.53
2022-08-17T07:43:35.378Z,98484.03
2022-08-17T07:46:29.789Z,98485.22
2022-08-17T07:49:16.202Z,98483.09
2022-08-17T07:51:42.584Z,98490.69
2022-08-17T07:54:15.311Z,98497.69
2022-08-17T07:56:47.951Z,98493.91
2022-08-17T07:59:14.496Z,98485.97
2022-08-17T08:01:42.539Z,98480.66
2022-08-17T08:04:43.159Z,98475.53
2022-08-17T08:07:14.631Z,98478.84
2022-08-17T08:09:42.718Z,98473.47
2022-08-17T08:12:21.507Z,98481.13
2022-08-17T08:14:54.566Z,98478.09
2022-08-17T08:17:23.949Z,98473.03
2022-08-17T08:19:50.417Z,98479.38
2022-08-17T08:22:23.850Z,98470.38
2022-08-17T08:24:56.213Z,98479.56
2022-08-17T08:27:29.851Z,98475.69
2022-08-17T08:30:05.285Z,98473.94
2022-08-17T08:32:37.435Z,98480.38
2022-08-17T08:35:13.771Z,98482.31
2022-08-17T08:37:47.448Z,98476.66
2022-08-17T08:40:16.746Z,98472.53
2022-08-17T08:43:06.922Z,98477.41
2022-08-17T08:45:41.280Z,98469.75
2022-08-17T08:48:46.220Z,98477.69
2022-08-17T08:51:18.705Z,98484.78
2022-08-17T08:53:54.271Z,98480.19
2022-08-17T08:56:49.812Z,98472.47
2022-08-17T08:59:30.709Z,98476.06
2022-08-17T09:01:57.222Z,98477.41
2022-08-17T09:04:30.067Z,98476.28
2022-08-17T09:06:57.976Z,98471.00
2022-08-17T09:09:34.814Z,98471.00
2022-08-17T09:12:21.314Z,98471.56
2022-08-17T09:14:54.510Z,98465.31
2022-08-17T09:17:25.449Z,98464.25
2022-08-17T09:19:51.884Z,98473.78
2022-08-17T09:22:30.505Z,98465.53
2022-08-17T09:25:03.264Z,98463.06
2022-08-17T09:27:35.761Z,98451.56
2022-08-17T09:30:06.810Z,98457.41
2022-08-17T09:32:44.169Z,98453.38
2022-08-17T09:35:16.740Z,98454.28
2022-08-17T09:37:53.201Z,98453.94
2022-08-17T09:40:19.752Z,98453.03
2022-08-17T09:42:49.482Z,98452.03
2022-08-17T09:45:23.809Z,98448.41
2022-08-17T09:47:55.949Z,98437.28
2022-08-17T09:51:03.508Z,98435.81
2022-08-17T09:53:17.105Z,98426.06
2022-08-17T09:55:43.526Z,98422.97
2022-08-17T09:58:15.402Z,98423.41
2022-08-17T10:00:46.040Z,98408.78
2022-08-17T10:03:30.016Z,98419.28
2022-08-17T10:05:59.510Z,98421.47
2022-08-17T10:08:45.660Z,98424.34
2022-08-17T10:11:18.984Z,98424.00
2022-08-17T10:13:52.932Z,98431.25
2022-08-17T10:16:23.224Z,98421.25
2022-08-17T10:18:49.640Z,98419.91
2022-08-17T10:21:36.329Z,98417.31
2022-08-17T10:24:24.658Z,98414.50
2022-08-17T10:26:56.954Z,98418.78
2022-08-17T10:29:49.696Z,98411.81
2022-08-17T10:32:32.275Z,98414.09
2022-08-17T10:35:01.710Z,98417.16
2022-08-17T10:37:28.471Z,98408.59
2022-08-17T10:40:04.481Z,98413.00
2022-08-17T10:42:33.210Z,98402.13
2022-08-17T10:45:20.043Z,98408.72
2022-08-17T10:48:04.771Z,98406.56
2022-08-17T10:50:47.475Z,98402.25
2022-08-17T10:53:32.032Z,98398.94
2022-08-17T10:56:13.784Z,98397.06
2022-08-17T10:58:54.212Z,98394.63
2022-08-17T11:01:43.783Z,98389.69
2022-08-17T11:04:24.339Z,98393.84
2022-08-17T11:07:02.456Z,98389.19
2022-08-17T11:09:37.726Z,98398.22
2022-08-17T11:12:16.316Z,98406.44
2022-08-17T11:14:52.274Z,98403.97
2022-08-17T11:17:31.139Z,98407.25
2022-08-17T11:19:58.109Z,98408.38
2022-08-17T11:22:43.428Z,98405.56
2022-08-17T11:25:15.092Z,98399.59
2022-08-17T11:27:42.691Z,98389.59
2022-08-17T11:30:14.113Z,98384.38
2022-08-17T11:32:47.652Z,98383.75
2022-08-17T11:35:20.382Z,98384.47
2022-08-17T11:37:46.785Z,98389.63
2022-08-17T11:40:27.807Z,98388.34
2022-08-17T11:42:57.249Z,98395.19
2022-08-17T11:45:39.183Z,98390.69
2022-08-17T11:48:36.534Z,98386.63
2022-08-17T11:51:35.380Z,98385.50
2022-08-17T11:54:34.468Z,98390.69
2022-08-17T11:57:21.497Z,98395.34
2022-08-17T11:59:47.924Z,98384.97
2022-08-17T12:02:32.914Z,98387.56
2022-08-17T12:05:14.607Z,98388.63
2022-08-17T12:07:46.630Z,98390.75
2022-08-17T12:10:16.097Z,98386.56
2022-08-17T12:12:44.186Z,98389.50
2022-08-17T12:15:18.161Z,98393.09
2022-08-17T12:17:55.422Z,98385.69
2022-08-17T12:20:24.442Z,98381.72
2022-08-17T12:23:04.037Z,98387.69
2022-08-17T12:25:34.931Z,98386.88
2022-08-17T12:28:06.047Z,98384.38
2022-08-17T12:30:34.452Z,98390.75
2022-08-17T12:33:00.976Z,98393.41
2022-08-17T12:35:33.124Z,98383.81
2022-08-17T12:38:00.127Z,98395.66
2022-08-17T12:40:28.415Z,98392.47
2022-08-17T12:42:57.904Z,98395.81
2022-08-17T12:45:29.501Z,98402.78
2022-08-17T12:48:04.139Z,98399.47
2022-08-17T12:50:32.208Z,98399.28
2022-08-17T12:53:02.301Z,98402.25
2022-08-17T12:55:32.471Z,98408.28
2022-08-17T12:58:01.890Z,98411.03
2022-08-17T13:00:33.324Z,98401.22
2022-08-17T13:03:07.801Z,98399.63
2022-08-17T13:05:35.603Z,98411.06
2022-08-17T13:08:04.740Z,98412.09
2022-08-17T13:10:36.259Z,98419.13
2022-08-17T13:13:05.373Z,98428.88
2022-08-17T13:15:31.793Z,98425.53
2022-08-17T13:18:04.075Z,98429.59
2022-08-17T13:20:30.830Z,98438.03
2022-08-17T13:22:58.715Z,98440.09
2022-08-17T13:25:26.537Z,98448.25
2022-08-17T13:27:53.791Z,98439.94
2022-08-17T13:30:23.874Z,98438.22
2022-08-17T13:32:50.445Z,98441.63
2022-08-17T13:35:40.047Z,98435.25
2022-08-17T13:38:26.833Z,98445.84
2022-08-17T13:40:53.456Z,98450.03
2022-08-17T13:43:46.165Z,98449.31
2022-08-17T13:46:17.553Z,98457.50
2022-08-17T13:48:44.244Z,98457.31
2022-08-17T13:51:16.772Z,98457.94
2022-08-17T13:53:43.223Z,98470.78
2022-08-17T13:56:38.867Z,98467.34
2022-08-17T13:59:02.819Z,98462.47
2022-08-17T14:01:31.137Z,98449.19
2022-08-17T14:03:59.071Z,98442.22
2022-08-17T14:06:53.327Z,98450.19
2022-08-17T14:09:15.181Z,98452.00
2022-08-17T14:11:42.621Z,98463.78
2022-08-17T14:14:09.268Z,98466.50
2022-08-17T14:16:36.420Z,98463.72
2022-08-17T14:19:02.920Z,98473.88
2022-08-17T14:21:29.496Z,98471.47
2022-08-17T14:23:55.923Z,98460.19
2022-08-17T14:26:23.170Z,98463.34
2022-08-17T14:28:56.247Z,98464.78
2022-08-17T14:31:23.219Z,98457.78
2022-08-17T14:33:49.655Z,98449.91
2022-08-17T14:36:16.142Z,98449.41
2022-08-17T14:38:43.026Z,98457.31
2022-08-17T14:41:09.527Z,98456.25
2022-08-17T14:43:35.985Z,98452.00
2022-08-17T14:46:02.587Z,98457.50
2022-08-17T14:48:29.225Z,98454.72
2022-08-17T14:50:56.733Z,98464.13
2022-08-17T14:53:23.316Z,98465.78
2022-08-17T14:55:50.872Z,98476.72
2022-08-17T14:58:18.023Z,98479.53
2022-08-17T15:00:44.489Z,98468.56
2022-08-17T15:03:11.786Z,98475.81
2022-08-17T15:05:38.994Z,98471.50
2022-08-17T15:08:06.047Z,98458.28
2022-08-17T15:10:32.562Z,98452.00
2022-08-17T15:12:59.757Z,98433.41
2022-08-17T15:15:26.704Z,98430.25
2022-08-17T15:17:53.250Z,98418.22
2022-08-17T15:20:22.051Z,98419.22
2022-08-17T15:22:55.221Z,98409.28
2022-08-17T15:25:22.396Z,98405.31
2022-08-17T15:27:49.141Z,98415.94
2022-08-17T15:30:15.987Z,98403.59
2022-08-17T15:32:51.387Z,98396.91
2022-08-17T15:35:26.954Z,98391.47
2022-08-17T15:37:55.055Z,98395.53
2022-08-17T15:40:21.496Z,98400.50
2022-08-17T15:42:47.960Z,98400.31
2022-08-17T15:45:14.619Z,98408.81
2022-08-17T15:47:42.568Z,98408.41
2022-08-17T15:50:09.733Z,98412.38
2022-08-17T15:52:40.131Z,98401.09
2022-08-17T15:55:08.975Z,98402.28
2022-08-17T15:57:36.135Z,98394.06
2022-08-17T16:00:03.638Z,98397.34
2022-08-17T16:03:46.742Z,98385.88
2022-08-17T16:05:21.869Z,98386.09
2022-08-17T16:07:50.980Z,98380.34
2022-08-17T16:10:19.229Z,98384.28
2022-08-17T16:12:46.905Z,98382.19
2022-08-17T16:15:13.852Z,98387.47
2022-08-17T16:17:41.538Z,98381.81
2022-08-17T16:20:09.993Z,98384.88
2022-08-17T16:22:48.221Z,98384.63
2022-08-17T16:25:17.990Z,98366.88
2022-08-17T16:27:45.333Z,98374.31
2022-08-17T16:30:17.070Z,98374.69
2022-08-17T16:32:44.397Z,98363.56
2022-08-17T16:35:11.930Z,98362.53
2022-08-17T16:37:40.421Z,98369.13
2022-08-17T16:40:12.266Z,98363.06
2022-08-17T16:42:39.713Z,98364.53
2022-08-17T16:45:06.280Z,98357.72
2022-08-17T16:47:32.779Z,98361.53
2022-08-17T16:49:59.402Z,98366.94
2022-08-17T16:52:32.615Z,98364.34
2022-08-17T16:55:00.286Z,98361.03
2022-08-17T16:57:27.071Z,98359.00
2022-08-17T16:59:53.853Z,98359.03
2022-08-17T17:02:27.813Z,98359.25
2022-08-17T17:05:13.873Z,98358.53
2022-08-17T17:07:58.819Z,98363.41
2022-08-17T17:10:35.995Z,98367.53
2022-08-17T17:13:04.556Z,98370.53
2022-08-17T17:15:45.001Z,98364.34
2022-08-17T17:18:12.733Z,98365.38
2022-08-17T17:20:45.859Z,98359.91
2022-08-17T17:23:32.199Z,98358.88
2022-08-17T17:26:07.971Z,98362.69
2022-08-17T17:28:42.722Z,98368.66
2022-08-17T17:31:11.996Z,98363.09
2022-08-17T17:33:43.552Z,98371.16
2022-08-17T17:36:20.880Z,98372.84
2022-08-17T17:38:53.021Z,98371.78
2022-08-17T17:41:26.508Z,98370.19
2022-08-17T17:43:57.740Z,98370.59
2022-08-17T17:46:32.912Z,98371.06
2022-08-17T17:48:59.641Z,98373.16
2022-08-17T17:52:05.221Z,98384.03
2022-08-17T17:54:32.511Z,98387.03
2022-08-17T17:57:07.272Z,98395.41
2022-08-17T17:59:59.640Z,98388.56
2022-08-17T18:02:53.272Z,98387.06
2022-08-17T18:05:25.571Z,98388.09
2022-08-17T18:08:11.495Z,98401.56
2022-08-17T18:10:44.948Z,98404.16
2022-08-17T18:13:21.673Z,98401.34
2022-08-17T18:15:53.280Z,98406.16
2022-08-17T18:18:40.039Z,98402.53
2022-08-17T18:21:14.882Z,98399.91
2022-08-17T18:23:50.878Z,98397.50
2022-08-17T18:26:33.693Z,98392.09
2022-08-17T18:29:01.812Z,98388.38
2022-08-17T18:31:28.638Z,98385.22
2022-08-17T18:34:36.134Z,98385.22
2022-08-17T18:37:06.673Z,98393.06
2022-08-17T18:39:33.487Z,98401.53
2022-08-17T18:42:00.563Z,98405.34
2022-08-17T18:44:31.362Z,98393.94
2022-08-17T18:47:14.626Z,98392.69
2022-08-17T18:49:45.872Z,98392.00
2022-08-17T18:52:15.530Z,98390.13
2022-08-17T18:55:02.260Z,98391.91
2022-08-17T18:57:34.977Z,98390.97
2022-08-17T19:00:09.998Z,98409.66
2022-08-17T19:02:49.501Z,98403.81
2022-08-17T19:05:27.160Z,98404.66
2022-08-17T19:07:53.847Z,98398.06
2022-08-17T19:10:28.230Z,98403.59
2022-08-17T19:13:12.614Z,98398.13
2022-08-17T19:16:14.443Z,98411.63
2022-08-17T19:18:39.281Z,98406.84
2022-08-17T19:21:29.004Z,98416.22
2022-08-17T19:24:19.559Z,98423.47
2022-08-17T19:27:06.390Z,98415.63
2022-08-17T19:29:55.485Z,98414.53
2022-08-17T19:32:24.444Z,98415.88
2022-08-17T19:34:51.160Z,98420.63
2022-08-17T19:37:36.482Z,98428.88
2022-08-17T19:40:02.910Z,98435.06
2022-08-17T19:42:49.704Z,98428.47
2022-08-17T19:45:34.677Z,98432.75
2022-08-17T19:48:21.098Z,98430.78
2022-08-17T19:50:56.363Z,98435.84
2022-08-17T19:54:01.521Z,98433.41
2022-08-17T19:56:31.660Z,98434.09
2022-08-17T19:59:02.692Z,98432.72
2022-08-17T20:01:36.508Z,98436.13
2022-08-17T20:04:23.241Z,98443.25
2022-08-17T20:07:01.883Z,98443.72
2022-08-17T20:09:38.877Z,98443.38
2022-08-17T20:12:14.267Z,98455.88
2022-08-17T20:14:55.393Z,98447.56
2022-08-17T20:17:24.830Z,98452.38
2022-08-17T20:20:07.507Z,98455.09
2022-08-17T20:22:53.166Z,98461.31
2022-08-17T20:25:30.582Z,98455.53
2022-08-17T20:28:06.056Z,98451.44
2022-08-17T20:30:37.597Z,98459.97
2022-08-17T20:33:06.023Z,98464.38
2022-08-17T20:35:34.083Z,98455.66
2022-08-17T20:38:12.235Z,98459.63
2022-08-17T20:40:54.066Z,98455.50
2022-08-17T20:43:43.182Z,98450.69
2022-08-17T20:46:14.435Z,98448.25
2022-08-17T20:48:42.749Z,98448.66
2022-08-17T20:51:15.194Z,98448.66
2022-08-17T20:54:01.866Z,98449.50
2022-08-17T20:56:43.528Z,98448.25
2022-08-17T20:59:25.511Z,98454.47
2022-08-17T21:02:18.117Z,98448.44
2022-08-17T21:04:52.317Z,98448.69
2022-08-17T21:07:29.514Z,98448.66
2022-08-17T21:10:09.631Z,98443.25
2022-08-17T21:12:41.815Z,98449.44
2022-08-17T21:15:19.344Z,98437.81
2022-08-17T21:18:08.812Z,98448.38
2022-08-17T21:20:55.635Z,98450.22
2022-08-17T21:23:28.109Z,98456.44
2022-08-17T21:26:00.966Z,98450.19
2022-08-17T21:28:36.841Z,98452.22
2022-08-17T21:31:29.062Z,98465.44
2022-08-17T21:34:17.967Z,98465.44
2022-08-17T21:36:45.701Z,98468.28
2022-08-17T21:39:13.549Z,98483.59
2022-08-17T21:41:53.622Z,98481.88
2022-08-17T21:44:27.778Z,98489.25
2022-08-17T21:47:11.362Z,98488.59
2022-08-17T21:49:38.116Z,98488.13
2022-08-17T21:52:05.613Z,98498.84
2022-08-17T21:54:35.688Z,98506.63
2022-08-17T21:57:04.097Z,98513.44
2022-08-17T21:59:32.940Z,98519.19
2022-08-17T22:02:00.603Z,98511.88
2022-08-17T22:04:27.159Z,98513.69
2022-08-17T22:06:57.525Z,98502.69
2022-08-17T22:09:29.307Z,98500.78
2022-08-17T22:12:04.506Z,98507.31
2022-08-17T22:14:52.090Z,98510.41
2022-08-17T22:17:23.049Z,98504.78
2022-08-17T22:19:57.744Z,98504.13
2022-08-17T22:22:56.289Z,98504.50
2022-08-17T22:25:23.240Z,98509.97
2022-08-17T22:27:49.829Z,98498.41
2022-08-17T22:30:18.949Z,98505.38
2022-08-17T22:32:46.843Z,98511.13
2022-08-17T22:35:16.044Z,98508.19
2022-08-17T22:37:42.499Z,98517.66
2022-08-17T22:40:09.138Z,98518.41
2022-08-17T22:42:44.252Z,98526.38
2022-08-17T22:45:10.714Z,98531.69
2022-08-17T22:47:42.976Z,98528.53
2022-08-17T22:50:14.960Z,98519.59
2022-08-17T22:53:03.443Z,98528.38
2022-08-17T22:55:49.718Z,98521.91
2022-08-17T22:58:37.124Z,98527.00
2022-08-17T23:01:36.125Z,98521.75
2022-08-17T23:04:07.773Z,98525.19
2022-08-17T23:06:35.778Z,98530.06
2022-08-17T23:09:04.229Z,98536.97
2022-08-17T23:11:36.875Z,98528.66
2022-08-17T23:14:15.936Z,98526.16
2022-08-17T23:16:42.639Z,98524.66
2022-08-17T23:19:14.959Z,98524.03
2022-08-17T23:21:41.630Z,98516.34
2022-08-17T23:24:09.079Z,98519.78
2022-08-17T23:26:38.041Z,98513.13
2022-08-17T23:29:08.918Z,98515.53
2022-08-17T23:31:36.137Z,98504.31
2022-08-17T23:34:09.027Z,98512.56
2022-08-17T23:36:35.947Z,98504.22
2022-08-17T23:39:02.373Z,98507.13
2022-08-17T23:41:31.833Z,98504.13
2022-08-17T23:43:58.943Z,98496.47
2022-08-17T23:46:25.413Z,98493.31
2022-08-17T23:48:54.742Z,98493.69
2022-08-17T23:51:23.510Z,98497.56
2022-08-17T23:53:52.831Z,98489.06
2022-08-17T23:56:25.952Z,98498.50
2022-08-17T23:58:54.921Z,98495.50
